sensor_id;sensor_type;location;lat;lon;timestamp;P1;durP1;ratioP1;P2;durP2;ratioP2
37459;SDS011;23318;50.966;5.284;2024-03-23T00:54:15;17.70;;;3.70;;
37459;SDS011;23318;50.966;5.284;2024-03-23T00:56:40;12.75;;;3.47;;
37459;SDS011;23318;50.966;5.284;2024-03-23T00:59:06;18.17;;;4.80;;
37459;SDS011;23318;50.966;5.284;2024-03-23T01:01:31;13.40;;;3.75;;
37459;SDS011;23318;50.966;5.284;2024-03-23T01:03:57;9.52;;;3.50;;
37459;SDS011;23318;50.966;5.284;2024-03-23T01:06:23;12.52;;;3.15;;
37459;SDS011;23318;50.966;5.284;2024-03-23T01:08:48;14.27;;;3.35;;
37459;SDS011;23318;50.966;5.284;2024-03-23T01:11:14;11.20;;;3.08;;
37459;SDS011;23318;50.966;5.284;2024-03-23T01:13:39;11.30;;;3.38;;
37459;SDS011;23318;50.966;5.284;2024-03-23T01:16:05;7.10;;;2.75;;
37459;SDS011;23318;50.966;5.284;2024-03-23T01:18:31;12.68;;;3.30;;
37459;SDS011;23318;50.966;5.284;2024-03-23T01:20:57;13.68;;;3.75;;
37459;SDS011;23318;50.966;5.284;2024-03-23T01:23:23;18.48;;;3.47;;
37459;SDS011;23318;50.966;5.284;2024-03-23T01:25:52;13.55;;;3.70;;
37459;SDS011;23318;50.966;5.284;2024-03-23T01:28:19;10.13;;;3.45;;
37459;SDS011;23318;50.966;5.284;2024-03-23T01:30:45;11.75;;;3.60;;
37459;SDS011;23318;50.966;5.284;2024-03-23T01:33:10;13.23;;;3.97;;
37459;SDS011;23318;50.966;5.284;2024-03-23T01:35:36;17.75;;;4.60;;
37459;SDS011;23318;50.966;5.284;2024-03-23T01:38:02;16.48;;;4.32;;
37459;SDS011;23318;50.966;5.284;2024-03-23T01:40:28;13.40;;;4.22;;
37459;SDS011;23318;50.966;5.284;2024-03-23T01:42:57;17.00;;;4.18;;
37459;SDS011;23318;50.966;5.284;2024-03-23T01:45:24;11.93;;;3.92;;
37459;SDS011;23318;50.966;5.284;2024-03-23T01:47:50;20.85;;;4.53;;
37459;SDS011;23318;50.966;5.284;2024-03-23T01:50:17;18.83;;;5.68;;
37459;SDS011;23318;50.966;5.284;2024-03-23T01:52:47;16.35;;;4.38;;
37459;SDS011;23318;50.966;5.284;2024-03-23T01:55:13;17.83;;;4.38;;
37459;SDS011;23318;50.966;5.284;2024-03-23T01:57:39;16.73;;;4.20;;
37459;SDS011;23318;50.966;5.284;2024-03-23T02:00:05;19.70;;;4.32;;
37459;SDS011;23318;50.966;5.284;2024-03-23T02:02:31;15.05;;;4.28;;
37459;SDS011;23318;50.966;5.284;2024-03-23T02:04:57;13.23;;;3.72;;
37459;SDS011;23318;50.966;5.284;2024-03-23T02:07:22;10.32;;;3.33;;
37459;SDS011;23318;50.966;5.284;2024-03-23T02:09:49;16.20;;;3.90;;
37459;SDS011;23318;50.966;5.284;2024-03-23T02:12:18;14.38;;;3.65;;
37459;SDS011;23318;50.966;5.284;2024-03-23T02:14:46;14.43;;;4.55;;
37459;SDS011;23318;50.966;5.284;2024-03-23T02:17:12;13.02;;;4.55;;
37459;SDS011;23318;50.966;5.284;2024-03-23T02:19:38;21.15;;;4.78;;
37459;SDS011;23318;50.966;5.284;2024-03-23T02:22:03;15.20;;;4.40;;
37459;SDS011;23318;50.966;5.284;2024-03-23T02:24:29;14.52;;;3.80;;
37459;SDS011;23318;50.966;5.284;2024-03-23T02:26:55;19.90;;;4.93;;
37459;SDS011;23318;50.966;5.284;2024-03-23T02:29:21;16.77;;;4.40;;
37459;SDS011;23318;50.966;5.284;2024-03-23T02:31:46;15.98;;;3.50;;
37459;SDS011;23318;50.966;5.284;2024-03-23T02:34:12;12.35;;;3.95;;
37459;SDS011;23318;50.966;5.284;2024-03-23T02:36:37;20.33;;;4.68;;
37459;SDS011;23318;50.966;5.284;2024-03-23T02:39:03;12.05;;;3.55;;
37459;SDS011;23318;50.966;5.284;2024-03-23T02:41:29;12.60;;;3.40;;
37459;SDS011;23318;50.966;5.284;2024-03-23T02:43:54;8.45;;;3.60;;
37459;SDS011;23318;50.966;5.284;2024-03-23T02:46:20;19.63;;;4.88;;
37459;SDS011;23318;50.966;5.284;2024-03-23T02:48:48;14.20;;;3.40;;
37459;SDS011;23318;50.966;5.284;2024-03-23T02:51:14;18.00;;;4.07;;
37459;SDS011;23318;50.966;5.284;2024-03-23T02:53:39;19.85;;;4.38;;
37459;SDS011;23318;50.966;5.284;2024-03-23T02:56:05;18.98;;;3.95;;
37459;SDS011;23318;50.966;5.284;2024-03-23T02:58:31;19.00;;;4.05;;
37459;SDS011;23318;50.966;5.284;2024-03-23T03:00:57;15.07;;;4.95;;
37459;SDS011;23318;50.966;5.284;2024-03-23T03:03:22;16.00;;;3.67;;
37459;SDS011;23318;50.966;5.284;2024-03-23T03:05:51;20.50;;;3.90;;
37459;SDS011;23318;50.966;5.284;2024-03-23T03:08:20;16.52;;;3.88;;
37459;SDS011;23318;50.966;5.284;2024-03-23T03:10:46;13.68;;;4.15;;
37459;SDS011;23318;50.966;5.284;2024-03-23T03:13:11;18.17;;;3.50;;
37459;SDS011;23318;50.966;5.284;2024-03-23T03:15:37;18.73;;;4.32;;
37459;SDS011;23318;50.966;5.284;2024-03-23T03:18:04;16.67;;;3.40;;
37459;SDS011;23318;50.966;5.284;2024-03-23T03:20:30;18.45;;;4.22;;
37459;SDS011;23318;50.966;5.284;2024-03-23T03:22:56;17.20;;;3.38;;
37459;SDS011;23318;50.966;5.284;2024-03-23T03:25:22;21.08;;;3.92;;
37459;SDS011;23318;50.966;5.284;2024-03-23T03:27:47;10.93;;;3.42;;
37459;SDS011;23318;50.966;5.284;2024-03-23T03:30:13;21.20;;;4.07;;
37459;SDS011;23318;50.966;5.284;2024-03-23T03:32:39;18.73;;;3.65;;
37459;SDS011;23318;50.966;5.284;2024-03-23T03:35:05;11.40;;;3.38;;
37459;SDS011;23318;50.966;5.284;2024-03-23T03:37:30;10.88;;;3.00;;
37459;SDS011;23318;50.966;5.284;2024-03-23T03:39:56;12.63;;;3.60;;
37459;SDS011;23318;50.966;5.284;2024-03-23T03:42:22;12.98;;;2.83;;
37459;SDS011;23318;50.966;5.284;2024-03-23T03:44:50;16.88;;;3.30;;
37459;SDS011;23318;50.966;5.284;2024-03-23T03:47:16;13.05;;;3.03;;
37459;SDS011;23318;50.966;5.284;2024-03-23T03:49:42;15.38;;;3.53;;
37459;SDS011;23318;50.966;5.284;2024-03-23T03:52:07;13.07;;;3.17;;
37459;SDS011;23318;50.966;5.284;2024-03-23T03:54:33;16.80;;;3.85;;
37459;SDS011;23318;50.966;5.284;2024-03-23T03:56:59;10.93;;;2.70;;
37459;SDS011;23318;50.966;5.284;2024-03-23T03:59:24;20.45;;;3.90;;
37459;SDS011;23318;50.966;5.284;2024-03-23T04:01:50;13.38;;;3.80;;
37459;SDS011;23318;50.966;5.284;2024-03-23T04:04:16;16.80;;;4.47;;
37459;SDS011;23318;50.966;5.284;2024-03-23T04:06:42;15.57;;;3.45;;
37459;SDS011;23318;50.966;5.284;2024-03-23T04:09:08;13.35;;;4.13;;
37459;SDS011;23318;50.966;5.284;2024-03-23T04:11:35;11.82;;;2.90;;
37459;SDS011;23318;50.966;5.284;2024-03-23T04:14:00;12.32;;;3.33;;
37459;SDS011;23318;50.966;5.284;2024-03-23T04:16:27;9.73;;;2.97;;
37459;SDS011;23318;50.966;5.284;2024-03-23T04:18:53;10.18;;;2.65;;
37459;SDS011;23318;50.966;5.284;2024-03-23T04:21:19;13.45;;;3.22;;
37459;SDS011;23318;50.966;5.284;2024-03-23T04:23:45;13.45;;;3.70;;
37459;SDS011;23318;50.966;5.284;2024-03-23T04:26:11;16.23;;;2.85;;
37459;SDS011;23318;50.966;5.284;2024-03-23T04:28:36;10.77;;;2.30;;
37459;SDS011;23318;50.966;5.284;2024-03-23T04:31:05;11.57;;;3.28;;
37459;SDS011;23318;50.966;5.284;2024-03-23T04:33:31;12.15;;;3.20;;
37459;SDS011;23318;50.966;5.284;2024-03-23T04:35:56;15.82;;;3.42;;
37459;SDS011;23318;50.966;5.284;2024-03-23T04:38:22;16.17;;;3.28;;
37459;SDS011;23318;50.966;5.284;2024-03-23T04:40:57;7.72;;;3.45;;
37459;SDS011;23318;50.966;5.284;2024-03-23T04:43:24;15.70;;;3.83;;
37459;SDS011;23318;50.966;5.284;2024-03-23T04:45:50;11.27;;;3.80;;
37459;SDS011;23318;50.966;5.284;2024-03-23T04:48:16;14.75;;;3.67;;
37459;SDS011;23318;50.966;5.284;2024-03-23T04:50:43;11.38;;;3.33;;
37459;SDS011;23318;50.966;5.284;2024-03-23T04:53:08;13.77;;;3.33;;
37459;SDS011;23318;50.966;5.284;2024-03-23T04:55:34;11.60;;;4.38;;
37459;SDS011;23318;50.966;5.284;2024-03-23T04:57:59;9.95;;;4.68;;
37459;SDS011;23318;50.966;5.284;2024-03-23T05:00:25;11.50;;;4.35;;
37459;SDS011;23318;50.966;5.284;2024-03-23T05:02:51;11.73;;;3.58;;
37459;SDS011;23318;50.966;5.284;2024-03-23T05:05:18;15.20;;;4.20;;
37459;SDS011;23318;50.966;5.284;2024-03-23T05:07:43;11.57;;;4.22;;
37459;SDS011;23318;50.966;5.284;2024-03-23T05:10:09;15.43;;;4.45;;
37459;SDS011;23318;50.966;5.284;2024-03-23T05:12:38;18.65;;;5.28;;
37459;SDS011;23318;50.966;5.284;2024-03-23T05:15:05;25.40;;;6.25;;
37459;SDS011;23318;50.966;5.284;2024-03-23T05:17:32;19.67;;;6.32;;
37459;SDS011;23318;50.966;5.284;2024-03-23T05:19:59;22.10;;;6.13;;
37459;SDS011;23318;50.966;5.284;2024-03-23T05:22:24;19.00;;;6.45;;
37459;SDS011;23318;50.966;5.284;2024-03-23T05:24:50;26.73;;;7.45;;
37459;SDS011;23318;50.966;5.284;2024-03-23T05:27:16;23.95;;;6.95;;
37459;SDS011;23318;50.966;5.284;2024-03-23T05:29:41;21.10;;;7.28;;
37459;SDS011;23318;50.966;5.284;2024-03-23T05:32:10;18.45;;;7.35;;
37459;SDS011;23318;50.966;5.284;2024-03-23T05:34:36;22.40;;;8.05;;
37459;SDS011;23318;50.966;5.284;2024-03-23T05:37:01;27.40;;;8.85;;
37459;SDS011;23318;50.966;5.284;2024-03-23T05:39:27;28.98;;;9.07;;
37459;SDS011;23318;50.966;5.284;2024-03-23T05:41:53;23.33;;;8.30;;
37459;SDS011;23318;50.966;5.284;2024-03-23T05:44:18;28.95;;;8.57;;
37459;SDS011;23318;50.966;5.284;2024-03-23T05:46:44;26.83;;;8.57;;
37459;SDS011;23318;50.966;5.284;2024-03-23T05:49:13;22.38;;;10.05;;
37459;SDS011;23318;50.966;5.284;2024-03-23T05:51:42;23.08;;;8.10;;
37459;SDS011;23318;50.966;5.284;2024-03-23T05:54:08;23.85;;;9.20;;
37459;SDS011;23318;50.966;5.284;2024-03-23T05:56:33;27.65;;;9.48;;
37459;SDS011;23318;50.966;5.284;2024-03-23T05:58:59;22.52;;;9.27;;
37459;SDS011;23318;50.966;5.284;2024-03-23T06:01:24;24.83;;;9.13;;
37459;SDS011;23318;50.966;5.284;2024-03-23T06:03:53;27.38;;;9.13;;
37459;SDS011;23318;50.966;5.284;2024-03-23T06:06:19;24.15;;;8.50;;
37459;SDS011;23318;50.966;5.284;2024-03-23T06:08:45;27.10;;;9.50;;
37459;SDS011;23318;50.966;5.284;2024-03-23T06:11:10;25.85;;;8.68;;
37459;SDS011;23318;50.966;5.284;2024-03-23T06:13:36;27.38;;;11.10;;
37459;SDS011;23318;50.966;5.284;2024-03-23T06:16:02;26.17;;;8.63;;
37459;SDS011;23318;50.966;5.284;2024-03-23T06:18:27;25.02;;;9.35;;
37459;SDS011;23318;50.966;5.284;2024-03-23T06:20:53;27.05;;;11.40;;
37459;SDS011;23318;50.966;5.284;2024-03-23T06:23:19;20.15;;;8.15;;
37459;SDS011;23318;50.966;5.284;2024-03-23T06:25:45;21.33;;;8.60;;
37459;SDS011;23318;50.966;5.284;2024-03-23T06:28:11;21.00;;;9.02;;
37459;SDS011;23318;50.966;5.284;2024-03-23T06:30:37;27.50;;;8.63;;
37459;SDS011;23318;50.966;5.284;2024-03-23T06:33:03;24.05;;;8.48;;
37459;SDS011;23318;50.966;5.284;2024-03-23T06:35:30;21.95;;;8.65;;
37459;SDS011;23318;50.966;5.284;2024-03-23T06:37:56;20.88;;;7.10;;
37459;SDS011;23318;50.966;5.284;2024-03-23T06:40:23;21.77;;;7.07;;
37459;SDS011;23318;50.966;5.284;2024-03-23T06:42:49;22.58;;;7.45;;
37459;SDS011;23318;50.966;5.284;2024-03-23T06:45:14;30.15;;;8.05;;
37459;SDS011;23318;50.966;5.284;2024-03-23T06:47:41;25.73;;;7.15;;
37459;SDS011;23318;50.966;5.284;2024-03-23T06:50:07;20.83;;;6.88;;
37459;SDS011;23318;50.966;5.284;2024-03-23T06:52:32;15.38;;;5.45;;
37459;SDS011;23318;50.966;5.284;2024-03-23T06:54:58;21.70;;;7.28;;
37459;SDS011;23318;50.966;5.284;2024-03-23T06:57:23;22.45;;;5.38;;
37459;SDS011;23318;50.966;5.284;2024-03-23T06:59:49;12.25;;;6.10;;
37459;SDS011;23318;50.966;5.284;2024-03-23T07:02:15;17.48;;;4.57;;
37459;SDS011;23318;50.966;5.284;2024-03-23T07:04:41;17.58;;;4.53;;
37459;SDS011;23318;50.966;5.284;2024-03-23T07:07:07;29.05;;;5.78;;
37459;SDS011;23318;50.966;5.284;2024-03-23T07:09:32;24.00;;;5.95;;
37459;SDS011;23318;50.966;5.284;2024-03-23T07:11:58;12.40;;;4.78;;
37459;SDS011;23318;50.966;5.284;2024-03-23T07:14:24;15.95;;;4.97;;
37459;SDS011;23318;50.966;5.284;2024-03-23T07:16:50;17.27;;;4.50;;
37459;SDS011;23318;50.966;5.284;2024-03-23T07:19:16;28.25;;;6.32;;
37459;SDS011;23318;50.966;5.284;2024-03-23T07:21:43;16.30;;;4.85;;
37459;SDS011;23318;50.966;5.284;2024-03-23T07:24:09;13.98;;;4.80;;
37459;SDS011;23318;50.966;5.284;2024-03-23T07:26:35;18.63;;;4.75;;
37459;SDS011;23318;50.966;5.284;2024-03-23T07:29:01;14.23;;;5.47;;
37459;SDS011;23318;50.966;5.284;2024-03-23T07:31:27;17.75;;;5.45;;
37459;SDS011;23318;50.966;5.284;2024-03-23T07:33:52;14.93;;;4.25;;
37459;SDS011;23318;50.966;5.284;2024-03-23T07:36:18;13.30;;;3.65;;
37459;SDS011;23318;50.966;5.284;2024-03-23T07:38:44;17.45;;;4.50;;
37459;SDS011;23318;50.966;5.284;2024-03-23T07:41:19;14.95;;;4.50;;
37459;SDS011;23318;50.966;5.284;2024-03-23T07:43:46;12.98;;;3.08;;
37459;SDS011;23318;50.966;5.284;2024-03-23T07:46:13;8.30;;;2.80;;
37459;SDS011;23318;50.966;5.284;2024-03-23T07:48:40;8.93;;;2.72;;
37459;SDS011;23318;50.966;5.284;2024-03-23T07:51:10;12.68;;;3.30;;
37459;SDS011;23318;50.966;5.284;2024-03-23T07:53:45;15.73;;;3.30;;
37459;SDS011;23318;50.966;5.284;2024-03-23T07:56:14;12.00;;;2.92;;
37459;SDS011;23318;50.966;5.284;2024-03-23T07:58:40;11.65;;;2.75;;
37459;SDS011;23318;50.966;5.284;2024-03-23T08:01:07;9.43;;;2.10;;
37459;SDS011;23318;50.966;5.284;2024-03-23T08:03:34;9.40;;;2.33;;
37459;SDS011;23318;50.966;5.284;2024-03-23T08:08:36;11.30;;;2.50;;
37459;SDS011;23318;50.966;5.284;2024-03-23T08:11:02;12.55;;;2.25;;
37459;SDS011;23318;50.966;5.284;2024-03-23T08:13:31;7.75;;;1.70;;
37459;SDS011;23318;50.966;5.284;2024-03-23T08:16:01;8.98;;;2.78;;
37459;SDS011;23318;50.966;5.284;2024-03-23T08:18:28;9.75;;;1.95;;
37459;SDS011;23318;50.966;5.284;2024-03-23T08:23:23;12.20;;;1.65;;
37459;SDS011;23318;50.966;5.284;2024-03-23T08:25:49;10.25;;;2.67;;
37459;SDS011;23318;50.966;5.284;2024-03-23T08:28:15;9.35;;;1.63;;
37459;SDS011;23318;50.966;5.284;2024-03-23T08:30:41;20.35;;;2.50;;
37459;SDS011;23318;50.966;5.284;2024-03-23T08:33:06;11.65;;;1.77;;
37459;SDS011;23318;50.966;5.284;2024-03-23T08:35:32;7.15;;;1.55;;
37459;SDS011;23318;50.966;5.284;2024-03-23T08:37:59;6.85;;;1.58;;
37459;SDS011;23318;50.966;5.284;2024-03-23T08:40:25;8.52;;;1.55;;
37459;SDS011;23318;50.966;5.284;2024-03-23T08:42:51;13.63;;;1.40;;
37459;SDS011;23318;50.966;5.284;2024-03-23T08:45:16;12.18;;;2.17;;
37459;SDS011;23318;50.966;5.284;2024-03-23T08:47:42;9.25;;;1.50;;
37459;SDS011;23318;50.966;5.284;2024-03-23T08:50:07;6.22;;;1.20;;
37459;SDS011;23318;50.966;5.284;2024-03-23T08:52:33;8.38;;;1.67;;
37459;SDS011;23318;50.966;5.284;2024-03-23T08:54:59;4.10;;;1.23;;
37459;SDS011;23318;50.966;5.284;2024-03-23T08:57:25;8.00;;;1.85;;
37459;SDS011;23318;50.966;5.284;2024-03-23T08:59:50;7.00;;;1.20;;
37459;SDS011;23318;50.966;5.284;2024-03-23T09:02:16;7.85;;;1.58;;
37459;SDS011;23318;50.966;5.284;2024-03-23T09:04:42;9.13;;;1.50;;
37459;SDS011;23318;50.966;5.284;2024-03-23T09:07:08;8.52;;;1.25;;
37459;SDS011;23318;50.966;5.284;2024-03-23T09:09:34;6.88;;;1.20;;
37459;SDS011;23318;50.966;5.284;2024-03-23T09:12:02;6.63;;;1.23;;
37459;SDS011;23318;50.966;5.284;2024-03-23T09:14:28;9.63;;;1.60;;
37459;SDS011;23318;50.966;5.284;2024-03-23T09:16:54;6.05;;;1.42;;
37459;SDS011;23318;50.966;5.284;2024-03-23T09:19:20;10.85;;;1.45;;
37459;SDS011;23318;50.966;5.284;2024-03-23T09:21:46;4.85;;;1.55;;
37459;SDS011;23318;50.966;5.284;2024-03-23T09:24:11;9.90;;;1.80;;
37459;SDS011;23318;50.966;5.284;2024-03-23T09:26:37;5.47;;;1.25;;
37459;SDS011;23318;50.966;5.284;2024-03-23T09:29:02;7.90;;;1.55;;
37459;SDS011;23318;50.966;5.284;2024-03-23T09:31:29;7.10;;;1.15;;
37459;SDS011;23318;50.966;5.284;2024-03-23T09:33:56;8.15;;;2.28;;
37459;SDS011;23318;50.966;5.284;2024-03-23T09:36:23;8.75;;;1.20;;
37459;SDS011;23318;50.966;5.284;2024-03-23T09:38:48;5.47;;;1.38;;
37459;SDS011;23318;50.966;5.284;2024-03-23T09:41:14;6.30;;;1.83;;
37459;SDS011;23318;50.966;5.284;2024-03-23T09:43:40;8.70;;;1.17;;
37459;SDS011;23318;50.966;5.284;2024-03-23T09:46:06;6.90;;;1.23;;
37459;SDS011;23318;50.966;5.284;2024-03-23T09:48:32;6.47;;;1.17;;
37459;SDS011;23318;50.966;5.284;2024-03-23T09:50:58;10.55;;;2.05;;
37459;SDS011;23318;50.966;5.284;2024-03-23T09:53:24;8.13;;;1.38;;
37459;SDS011;23318;50.966;5.284;2024-03-23T09:55:50;6.32;;;1.92;;
37459;SDS011;23318;50.966;5.284;2024-03-23T09:58:17;6.10;;;1.33;;
37459;SDS011;23318;50.966;5.284;2024-03-23T10:00:43;9.95;;;1.92;;
37459;SDS011;23318;50.966;5.284;2024-03-23T10:03:09;9.63;;;1.35;;
37459;SDS011;23318;50.966;5.284;2024-03-23T10:05:36;7.57;;;1.65;;
37459;SDS011;23318;50.966;5.284;2024-03-23T10:10:43;8.50;;;1.92;;
37459;SDS011;23318;50.966;5.284;2024-03-23T10:13:09;10.27;;;1.83;;
37459;SDS011;23318;50.966;5.284;2024-03-23T10:15:37;9.32;;;1.55;;
37459;SDS011;23318;50.966;5.284;2024-03-23T10:18:18;6.75;;;1.30;;
37459;SDS011;23318;50.966;5.284;2024-03-23T10:20:52;6.43;;;1.33;;
37459;SDS011;23318;50.966;5.284;2024-03-23T10:23:31;7.93;;;1.65;;
37459;SDS011;23318;50.966;5.284;2024-03-23T10:31:37;7.82;;;1.35;;
37459;SDS011;23318;50.966;5.284;2024-03-23T10:34:06;12.15;;;1.15;;
37459;SDS011;23318;50.966;5.284;2024-03-23T10:36:32;8.10;;;1.63;;
37459;SDS011;23318;50.966;5.284;2024-03-23T10:39:00;7.20;;;1.10;;
37459;SDS011;23318;50.966;5.284;2024-03-23T10:41:27;7.32;;;1.65;;
37459;SDS011;23318;50.966;5.284;2024-03-23T10:43:54;8.10;;;1.75;;
37459;SDS011;23318;50.966;5.284;2024-03-23T10:46:22;11.70;;;1.88;;
37459;SDS011;23318;50.966;5.284;2024-03-23T10:48:48;7.05;;;0.77;;
37459;SDS011;23318;50.966;5.284;2024-03-23T10:51:14;2.42;;;0.22;;
37459;SDS011;23318;50.966;5.284;2024-03-23T10:53:40;2.90;;;0.82;;
37459;SDS011;23318;50.966;5.284;2024-03-23T10:56:07;2.45;;;0.80;;
37459;SDS011;23318;50.966;5.284;2024-03-23T11:00:58;1.52;;;0.80;;
37459;SDS011;23318;50.966;5.284;2024-03-23T11:03:35;3.95;;;0.85;;
37459;SDS011;23318;50.966;5.284;2024-03-23T11:06:02;3.83;;;0.75;;
37459;SDS011;23318;50.966;5.284;2024-03-23T11:11:14;5.68;;;1.42;;
37459;SDS011;23318;50.966;5.284;2024-03-23T11:13:42;5.55;;;1.13;;
37459;SDS011;23318;50.966;5.284;2024-03-23T11:18:40;6.40;;;1.10;;
37459;SDS011;23318;50.966;5.284;2024-03-23T11:21:07;4.80;;;1.23;;
37459;SDS011;23318;50.966;5.284;2024-03-23T11:23:33;1.90;;;0.75;;
37459;SDS011;23318;50.966;5.284;2024-03-23T11:25:59;3.30;;;0.93;;
37459;SDS011;23318;50.966;5.284;2024-03-23T11:28:24;3.08;;;1.00;;
37459;SDS011;23318;50.966;5.284;2024-03-23T11:30:50;2.97;;;1.08;;
37459;SDS011;23318;50.966;5.284;2024-03-23T11:33:16;1.67;;;0.80;;
37459;SDS011;23318;50.966;5.284;2024-03-23T11:35:41;4.35;;;1.15;;
37459;SDS011;23318;50.966;5.284;2024-03-23T11:38:14;1.75;;;0.65;;
37459;SDS011;23318;50.966;5.284;2024-03-23T11:40:47;2.50;;;0.80;;
37459;SDS011;23318;50.966;5.284;2024-03-23T11:43:14;4.65;;;0.80;;
37459;SDS011;23318;50.966;5.284;2024-03-23T11:45:47;5.57;;;0.98;;
37459;SDS011;23318;50.966;5.284;2024-03-23T11:48:18;2.58;;;0.88;;
37459;SDS011;23318;50.966;5.284;2024-03-23T11:50:46;4.82;;;1.00;;
37459;SDS011;23318;50.966;5.284;2024-03-23T11:55:43;3.13;;;0.90;;
37459;SDS011;23318;50.966;5.284;2024-03-23T11:58:35;2.25;;;0.93;;
37459;SDS011;23318;50.966;5.284;2024-03-23T12:01:01;2.78;;;0.40;;
37459;SDS011;23318;50.966;5.284;2024-03-23T12:03:28;1.75;;;0.30;;
37459;SDS011;23318;50.966;5.284;2024-03-23T12:05:58;1.80;;;0.50;;
37459;SDS011;23318;50.966;5.284;2024-03-23T12:08:30;2.47;;;0.45;;
37459;SDS011;23318;50.966;5.284;2024-03-23T12:11:10;3.75;;;0.68;;
37459;SDS011;23318;50.966;5.284;2024-03-23T12:13:38;0.70;;;0.60;;
37459;SDS011;23318;50.966;5.284;2024-03-23T12:16:11;2.25;;;0.68;;
37459;SDS011;23318;50.966;5.284;2024-03-23T12:18:49;1.35;;;0.65;;
37459;SDS011;23318;50.966;5.284;2024-03-23T12:21:18;4.43;;;0.82;;
37459;SDS011;23318;50.966;5.284;2024-03-23T12:23:44;2.78;;;0.65;;
37459;SDS011;23318;50.966;5.284;2024-03-23T12:26:12;4.50;;;1.23;;
37459;SDS011;23318;50.966;5.284;2024-03-23T12:28:38;1.15;;;0.93;;
37459;SDS011;23318;50.966;5.284;2024-03-23T12:31:04;3.55;;;1.08;;
37459;SDS011;23318;50.966;5.284;2024-03-23T12:33:33;1.23;;;0.82;;
37459;SDS011;23318;50.966;5.284;2024-03-23T12:35:58;2.35;;;0.80;;
37459;SDS011;23318;50.966;5.284;2024-03-23T12:38:24;4.78;;;0.95;;
37459;SDS011;23318;50.966;5.284;2024-03-23T12:40:50;5.40;;;1.00;;
37459;SDS011;23318;50.966;5.284;2024-03-23T12:43:16;4.93;;;1.10;;
37459;SDS011;23318;50.966;5.284;2024-03-23T12:45:48;5.00;;;0.68;;
37459;SDS011;23318;50.966;5.284;2024-03-23T12:48:14;7.85;;;1.25;;
37459;SDS011;23318;50.966;5.284;2024-03-23T12:50:40;6.38;;;1.35;;
37459;SDS011;23318;50.966;5.284;2024-03-23T12:53:06;3.67;;;1.13;;
37459;SDS011;23318;50.966;5.284;2024-03-23T12:55:31;5.35;;;1.20;;
37459;SDS011;23318;50.966;5.284;2024-03-23T12:57:59;4.32;;;0.98;;
37459;SDS011;23318;50.966;5.284;2024-03-23T13:00:25;4.65;;;0.75;;
37459;SDS011;23318;50.966;5.284;2024-03-23T13:02:51;1.98;;;0.70;;
37459;SDS011;23318;50.966;5.284;2024-03-23T13:05:18;0.90;;;0.57;;
37459;SDS011;23318;50.966;5.284;2024-03-23T13:07:44;4.35;;;0.85;;
37459;SDS011;23318;50.966;5.284;2024-03-23T13:10:09;2.58;;;0.73;;
37459;SDS011;23318;50.966;5.284;2024-03-23T13:12:35;3.35;;;0.88;;
37459;SDS011;23318;50.966;5.284;2024-03-23T13:15:01;2.53;;;0.73;;
37459;SDS011;23318;50.966;5.284;2024-03-23T13:17:27;3.47;;;0.77;;
37459;SDS011;23318;50.966;5.284;2024-03-23T13:19:53;4.03;;;0.93;;
37459;SDS011;23318;50.966;5.284;2024-03-23T13:22:20;4.28;;;1.13;;
37459;SDS011;23318;50.966;5.284;2024-03-23T13:24:46;2.47;;;0.98;;
37459;SDS011;23318;50.966;5.284;2024-03-23T13:27:11;3.78;;;1.30;;
37459;SDS011;23318;50.966;5.284;2024-03-23T13:29:37;6.50;;;1.27;;
37459;SDS011;23318;50.966;5.284;2024-03-23T13:32:03;3.60;;;1.15;;
37459;SDS011;23318;50.966;5.284;2024-03-23T13:34:29;3.60;;;1.00;;
37459;SDS011;23318;50.966;5.284;2024-03-23T13:36:55;5.10;;;1.67;;
37459;SDS011;23318;50.966;5.284;2024-03-23T13:39:23;1.27;;;0.40;;
37459;SDS011;23318;50.966;5.284;2024-03-23T13:41:50;0.95;;;0.65;;
37459;SDS011;23318;50.966;5.284;2024-03-23T13:44:16;3.42;;;0.40;;
37459;SDS011;23318;50.966;5.284;2024-03-23T13:46:41;2.45;;;0.70;;
37459;SDS011;23318;50.966;5.284;2024-03-23T13:49:12;1.75;;;0.30;;
37459;SDS011;23318;50.966;5.284;2024-03-23T13:51:49;5.18;;;0.70;;
37459;SDS011;23318;50.966;5.284;2024-03-23T13:54:15;2.05;;;0.55;;
37459;SDS011;23318;50.966;5.284;2024-03-23T13:56:41;1.80;;;0.68;;
37459;SDS011;23318;50.966;5.284;2024-03-23T13:59:06;2.13;;;0.60;;
37459;SDS011;23318;50.966;5.284;2024-03-23T14:01:32;2.78;;;0.50;;
37459;SDS011;23318;50.966;5.284;2024-03-23T14:03:57;8.70;;;0.90;;
37459;SDS011;23318;50.966;5.284;2024-03-23T14:06:23;1.90;;;0.57;;
37459;SDS011;23318;50.966;5.284;2024-03-23T14:08:49;3.47;;;0.45;;
37459;SDS011;23318;50.966;5.284;2024-03-23T14:11:17;4.65;;;0.80;;
37459;SDS011;23318;50.966;5.284;2024-03-23T14:13:44;1.92;;;0.32;;
37459;SDS011;23318;50.966;5.284;2024-03-23T14:16:09;0.17;;;0.17;;
37459;SDS011;23318;50.966;5.284;2024-03-23T14:18:35;2.60;;;0.32;;
37459;SDS011;23318;50.966;5.284;2024-03-23T14:21:01;6.70;;;0.88;;
37459;SDS011;23318;50.966;5.284;2024-03-23T14:23:28;1.83;;;0.40;;
37459;SDS011;23318;50.966;5.284;2024-03-23T14:25:58;2.42;;;0.60;;
37459;SDS011;23318;50.966;5.284;2024-03-23T14:28:24;0.68;;;0.30;;
37459;SDS011;23318;50.966;5.284;2024-03-23T14:30:50;3.08;;;0.57;;
37459;SDS011;23318;50.966;5.284;2024-03-23T14:33:16;1.85;;;0.60;;
37459;SDS011;23318;50.966;5.284;2024-03-23T14:35:43;3.92;;;0.65;;
37459;SDS011;23318;50.966;5.284;2024-03-23T14:38:18;1.92;;;0.50;;
37459;SDS011;23318;50.966;5.284;2024-03-23T14:40:45;2.38;;;1.15;;
37459;SDS011;23318;50.966;5.284;2024-03-23T14:43:11;2.97;;;0.90;;
37459;SDS011;23318;50.966;5.284;2024-03-23T14:45:36;4.05;;;1.38;;
37459;SDS011;23318;50.966;5.284;2024-03-23T14:48:02;4.57;;;1.50;;
37459;SDS011;23318;50.966;5.284;2024-03-23T14:50:28;4.07;;;1.50;;
37459;SDS011;23318;50.966;5.284;2024-03-23T14:52:54;4.85;;;1.48;;
37459;SDS011;23318;50.966;5.284;2024-03-23T14:55:19;5.13;;;1.40;;
37459;SDS011;23318;50.966;5.284;2024-03-23T14:57:45;7.13;;;1.30;;
37459;SDS011;23318;50.966;5.284;2024-03-23T15:00:11;4.40;;;1.17;;
37459;SDS011;23318;50.966;5.284;2024-03-23T15:02:37;4.85;;;1.20;;
37459;SDS011;23318;50.966;5.284;2024-03-23T15:05:03;3.33;;;1.20;;
37459;SDS011;23318;50.966;5.284;2024-03-23T15:07:33;1.92;;;0.60;;
37459;SDS011;23318;50.966;5.284;2024-03-23T15:09:58;2.75;;;0.65;;
37459;SDS011;23318;50.966;5.284;2024-03-23T15:12:24;3.60;;;0.70;;
37459;SDS011;23318;50.966;5.284;2024-03-23T15:14:50;5.65;;;0.60;;
37459;SDS011;23318;50.966;5.284;2024-03-23T15:17:15;2.10;;;0.65;;
37459;SDS011;23318;50.966;5.284;2024-03-23T15:19:41;5.38;;;0.80;;
37459;SDS011;23318;50.966;5.284;2024-03-23T15:22:07;1.95;;;0.50;;
37459;SDS011;23318;50.966;5.284;2024-03-23T15:24:35;4.93;;;0.63;;
37459;SDS011;23318;50.966;5.284;2024-03-23T15:27:04;2.67;;;0.75;;
37459;SDS011;23318;50.966;5.284;2024-03-23T15:29:32;4.18;;;0.57;;
37459;SDS011;23318;50.966;5.284;2024-03-23T15:31:58;5.03;;;0.60;;
37459;SDS011;23318;50.966;5.284;2024-03-23T15:34:24;0.88;;;0.40;;
37459;SDS011;23318;50.966;5.284;2024-03-23T15:36:50;3.55;;;0.50;;
37459;SDS011;23318;50.966;5.284;2024-03-23T15:39:16;4.55;;;0.75;;
37459;SDS011;23318;50.966;5.284;2024-03-23T15:41:45;3.22;;;0.52;;
37459;SDS011;23318;50.966;5.284;2024-03-23T15:44:11;2.53;;;0.80;;
37459;SDS011;23318;50.966;5.284;2024-03-23T15:46:37;3.17;;;0.60;;
37459;SDS011;23318;50.966;5.284;2024-03-23T15:49:03;2.42;;;0.50;;
37459;SDS011;23318;50.966;5.284;2024-03-23T15:51:29;4.95;;;0.70;;
37459;SDS011;23318;50.966;5.284;2024-03-23T15:53:58;1.83;;;0.50;;